Time;durP1;ratioP1;P1;durP2;ratioP2;P2;SDS_P1;SDS_P2;PMS_P1;PMS_P2;Temp;Humidity;BMP_temperature;BMP_pressure;BME280_temperature;BME280_humidity;BME280_pressure;Samples;Min_cycle;Max_cycle;Signal;HPM_P1;HPM_P2
2023/03/14 03:02:47;;;;;;;8.47;8.00;;;9.70;99.90;;;;;;4948039;23;20312;-77
2023/03/14 03:05:15;;;;;;;8.37;7.87;;;9.70;99.90;;;;;;4951672;28;20214;-78
2023/03/14 03:07:42;;;;;;;8.37;7.77;;;9.70;99.90;;;;;;4952054;29;20195;-78
2023/03/14 03:10:10;;;;;;;8.40;7.90;;;9.60;99.90;;;;;;4955308;28;20289;-78
2023/03/14 03:12:38;;;;;;;8.77;8.30;;;9.60;99.90;;;;;;4935857;29;20266;-78
2023/03/14 03:15:06;;;;;;;8.27;7.87;;;9.60;99.90;;;;;;4957639;23;20187;-77
2023/03/14 03:17:39;;;;;;;8.00;7.50;;;9.60;99.90;;;;;;4958535;28;20236;-78
2023/03/14 03:20:16;;;;;;;7.37;6.97;;;9.60;99.90;;;;;;4973700;28;20383;-78
2023/03/14 03:22:50;;;;;;;8.50;7.90;;;9.50;99.90;;;;;;4972599;28;20243;-78
2023/03/14 03:25:20;;;;;;;7.80;7.40;;;9.60;99.90;;;;;;4969788;28;20221;-78
2023/03/14 03:27:47;;;;;;;8.20;7.70;;;9.50;99.90;;;;;;4960646;28;20657;-77
2023/03/14 03:30:18;;;;;;;8.00;7.50;;;9.50;99.90;;;;;;4971349;28;20221;-78
2023/03/14 03:32:46;;;;;;;8.10;7.60;;;9.50;99.90;;;;;;4966856;28;20708;-77
2023/03/14 03:35:15;;;;;;;7.93;7.53;;;9.40;99.90;;;;;;4973232;28;20217;-78
2023/03/14 03:37:42;;;;;;;7.60;7.20;;;9.50;99.90;;;;;;4972619;28;20198;-77
2023/03/14 03:40:10;;;;;;;8.10;7.60;;;9.40;99.90;;;;;;4971822;28;20194;-78
2023/03/14 03:42:41;;;;;;;8.50;8.00;;;9.40;99.90;;;;;;4971787;28;20297;-77
2023/03/14 03:45:21;;;;;;;8.53;8.10;;;9.40;99.90;;;;;;4981094;23;20222;-77
2023/03/14 03:47:56;;;;;;;8.67;8.07;;;9.40;99.90;;;;;;4968563;28;20279;-77
2023/03/14 03:50:27;;;;;;;8.67;8.27;;;9.40;99.90;;;;;;4974975;28;20230;-78
2023/03/14 03:52:54;;;;;;;9.00;8.50;;;9.40;99.90;;;;;;4953919;28;20195;-78
2023/03/14 03:55:21;;;;;;;8.87;8.27;;;9.40;99.90;;;;;;4968728;28;20402;-81
2023/03/14 03:57:48;;;;;;;9.23;8.53;;;9.30;99.90;;;;;;4953305;28;20198;-78
2023/03/14 04:00:15;;;;;;;9.07;8.57;;;9.30;99.90;;;;;;4981217;23;20645;-84
2023/03/14 04:02:42;;;;;;;9.00;8.50;;;9.30;99.90;;;;;;4956414;28;20234;-83
2023/03/14 04:05:12;;;;;;;9.00;8.43;;;9.30;99.90;;;;;;4962818;28;20214;-83
2023/03/14 04:07:45;;;;;;;9.60;8.90;;;9.20;99.90;;;;;;4950876;28;20202;-83
2023/03/14 04:10:15;;;;;;;8.80;8.30;;;9.20;99.90;;;;;;4948721;28;20602;-83
2023/03/14 04:12:49;;;;;;;9.60;9.00;;;9.20;99.90;;;;;;4935457;29;20203;-83
2023/03/14 04:15:19;;;;;;;10.53;9.53;;;9.20;99.90;;;;;;4932955;29;20194;-84
2023/03/14 04:17:51;;;;;;;8.67;8.10;;;9.20;99.90;;;;;;4942262;29;20227;-83
2023/03/14 04:20:18;;;;;;;9.10;8.53;;;9.20;99.90;;;;;;4942445;28;20725;-83
2023/03/14 04:22:46;;;;;;;10.80;10.00;;;9.20;99.90;;;;;;4942643;29;20207;-82
2023/03/14 04:25:13;;;;;;;2.97;2.10;;;9.20;99.90;;;;;;4937760;29;20768;-83
2023/03/14 04:27:47;;;;;;;2.87;2.10;;;9.20;99.90;;;;;;4934790;29;20203;-84
2023/03/14 04:30:22;;;;;;;3.87;2.63;;;9.20;99.90;;;;;;4930547;29;20223;-84
2023/03/14 04:32:55;;;;;;;4.13;3.73;;;9.10;99.90;;;;;;4942262;29;20626;-81
2023/03/14 04:35:25;;;;;;;3.90;3.70;;;9.20;99.90;;;;;;4935483;29;20198;-81
2023/03/14 04:37:57;;;;;;;4.33;3.40;;;9.20;99.90;;;;;;4942978;29;20203;-81
2023/03/14 04:40:25;;;;;;;3.90;3.53;;;9.20;99.90;;;;;;4931984;29;20272;-82
2023/03/14 04:42:55;;;;;;;3.60;3.30;;;9.20;99.90;;;;;;4938228;29;20203;-83
2023/03/14 04:45:23;;;;;;;3.20;3.10;;;9.20;99.90;;;;;;4942524;29;20215;-82
2023/03/14 04:47:50;;;;;;;2.87;2.63;;;9.20;99.90;;;;;;4941738;29;20613;-77
2023/03/14 04:50:19;;;;;;;4.13;2.93;;;9.20;99.90;;;;;;4952014;28;20245;-78
2023/03/14 04:52:47;;;;;;;5.17;3.10;;;9.20;99.90;;;;;;4951421;29;20202;-78
2023/03/14 04:55:15;;;;;;;3.13;2.90;;;9.20;99.90;;;;;;4948718;29;20684;-78
2023/03/14 04:57:42;;;;;;;3.00;2.73;;;9.20;99.90;;;;;;4948406;29;20203;-78
2023/03/14 05:00:11;;;;;;;3.00;2.67;;;9.20;99.90;;;;;;4952242;28;20309;-78
2023/03/14 05:02:53;;;;;;;2.93;2.73;;;9.20;99.90;;;;;;4956599;28;20194;-78
2023/03/14 05:05:43;;;;;;;3.30;3.00;;;9.20;99.90;;;;;;4944851;29;20237;-78
2023/03/14 05:08:28;;;;;;;3.30;3.00;;;9.20;99.90;;;;;;4954363;29;20229;-77
2023/03/14 05:11:13;;;;;;;3.40;2.60;;;9.20;99.90;;;;;;4951734;28;20419;-78
2023/03/14 05:13:52;;;;;;;2.60;2.40;;;9.20;99.90;;;;;;4953457;28;20203;-78
2023/03/14 05:16:49;;;;;;;2.90;2.70;;;9.20;99.90;;;;;;4937775;28;20210;-77
2023/03/14 05:19:15;;;;;;;3.53;3.20;;;9.20;99.90;;;;;;4955854;28;20218;-78
2023/03/14 05:22:12;;;;;;;5.33;2.90;;;9.20;99.90;;;;;;4954863;29;20202;-77
2023/03/14 05:24:58;;;;;;;3.53;3.23;;;9.20;99.90;;;;;;4954708;29;20221;-78
2023/03/14 05:27:49;;;;;;;3.63;3.43;;;9.30;99.90;;;;;;4943629;28;20210;-78
2023/03/14 05:30:39;;;;;;;2.93;2.80;;;9.30;99.90;;;;;;4960184;28;20219;-78
2023/03/14 05:33:24;;;;;;;5.47;3.30;;;9.30;99.90;;;;;;4958298;29;20205;-78
2023/03/14 05:36:10;;;;;;;5.80;3.40;;;9.30;99.90;;;;;;4955735;29;20210;-78
2023/03/14 05:38:57;;;;;;;3.13;2.93;;;9.30;99.90;;;;;;4953989;29;20251;-78
2023/03/14 05:41:50;;;;;;;4.03;3.40;;;9.20;99.90;;;;;;4952560;28;20230;-77
2023/03/14 05:44:46;;;;;;;3.90;3.50;;;9.30;99.90;;;;;;4952524;29;20199;-78
2023/03/14 05:47:36;;;;;;;3.33;3.13;;;9.20;99.90;;;;;;4953060;28;20700;-78
2023/03/14 05:50:16;;;;;;;3.50;3.30;;;9.20;99.90;;;;;;4954500;29;20445;-78
2023/03/14 05:53:07;;;;;;;3.90;3.57;;;9.20;99.90;;;;;;4951878;29;20763;-78
2023/03/14 05:55:42;;;;;;;4.03;3.60;;;9.20;99.90;;;;;;4956498;28;20206;-78
2023/03/14 05:58:09;;;;;;;3.50;3.20;;;9.30;99.90;;;;;;4958499;29;20211;-78
2023/03/14 06:00:58;;;;;;;3.00;2.80;;;9.30;99.90;;;;;;4948325;29;20233;-78
2023/03/14 06:03:39;;;;;;;2.80;2.60;;;9.30;99.90;;;;;;4948895;29;20716;-78
2023/03/14 06:06:07;;;;;;;3.10;2.90;;;9.30;99.90;;;;;;4952620;29;20218;-79
2023/03/14 06:08:35;;;;;;;2.93;2.67;;;9.30;99.90;;;;;;4949098;29;20199;-77
2023/03/14 06:11:04;;;;;;;3.53;2.60;;;9.30;99.90;;;;;;4950046;28;20697;-78
2023/03/14 06:13:31;;;;;;;2.60;2.50;;;9.30;99.90;;;;;;4952082;28;20276;-77
2023/03/14 06:15:59;;;;;;;4.03;2.63;;;9.30;99.90;;;;;;4952922;28;20258;-78
2023/03/14 06:18:26;;;;;;;3.77;2.77;;;9.30;99.90;;;;;;4953218;29;20203;-79
2023/03/14 06:20:55;;;;;;;2.97;2.70;;;9.30;99.90;;;;;;4953234;28;20215;-78
2023/03/14 06:23:26;;;;;;;2.87;2.67;;;9.30;99.90;;;;;;4957956;29;20207;-78
2023/03/14 06:25:53;;;;;;;2.80;2.60;;;9.30;99.90;;;;;;4954799;29;20606;-76
2023/03/14 06:28:24;;;;;;;3.77;2.70;;;9.40;99.90;;;;;;4952822;29;20198;-79
2023/03/14 06:30:51;;;;;;;2.40;2.20;;;9.40;99.90;;;;;;4951717;29;20219;-78
2023/03/14 06:33:19;;;;;;;3.77;2.40;;;9.50;99.90;;;;;;4951306;29;20266;-79
2023/03/14 06:35:46;;;;;;;2.60;2.40;;;9.50;99.90;;;;;;4952560;29;20686;-78
2023/03/14 06:38:13;;;;;;;2.80;2.60;;;9.60;99.90;;;;;;4953466;29;20660;-84
2023/03/14 06:40:41;;;;;;;2.50;2.40;;;9.60;99.90;;;;;;4941877;29;20225;-81
2023/03/14 06:43:27;;;;;;;2.70;2.50;;;9.60;99.90;;;;;;4942452;29;20570;-81
2023/03/14 06:45:54;;;;;;;3.00;2.80;;;9.60;99.90;;;;;;4953816;29;20223;-80
2023/03/14 06:48:22;;;;;;;2.70;2.60;;;9.60;99.90;;;;;;4950663;29;20207;-81
2023/03/14 06:50:53;;;;;;;2.70;2.50;;;9.70;99.90;;;;;;4942498;29;20241;-80
2023/03/14 06:53:21;;;;;;;3.33;2.37;;;9.60;99.90;;;;;;4937842;29;20677;-81
2023/03/14 06:55:48;;;;;;;2.33;2.10;;;9.70;99.90;;;;;;4942019;29;20203;-80
2023/03/14 06:58:18;;;;;;;2.50;2.30;;;9.70;99.90;;;;;;4952329;29;20206;-80
2023/03/14 07:00:46;;;;;;;3.30;2.42;;;9.70;99.90;;;;;;4949899;28;20481;-81
2023/03/14 07:03:17;;;;;;;4.50;4.10;;;9.80;99.90;;;;;;4954639;29;20436;-79
2023/03/14 07:05:50;;;;;;;4.25;3.95;;;9.90;99.90;;;;;;4949945;29;20459;-80
2023/03/14 07:08:16;;;;;;;3.80;3.50;;;10.00;99.90;;;;;;4948309;29;20207;-81
2023/03/14 07:10:43;;;;;;;3.53;3.33;;;10.10;99.90;;;;;;4947727;29;20219;-80
2023/03/14 07:13:10;;;;;;;3.80;3.60;;;10.20;99.90;;;;;;4950961;29;20576;-79
2023/03/14 07:15:48;;;;;;;4.10;3.80;;;10.40;99.90;;;;;;4943806;29;20204;-77
2023/03/14 07:18:15;;;;;;;3.67;3.37;;;10.50;99.90;;;;;;4946790;29;20209;-76
2023/03/14 07:20:42;;;;;;;3.50;3.30;;;10.70;99.90;;;;;;4946430;28;20716;-77
2023/03/14 07:23:10;;;;;;;3.67;3.37;;;10.80;99.90;;;;;;4946615;29;20275;-77
2023/03/14 07:25:43;;;;;;;2.80;2.60;;;11.00;99.90;;;;;;4952588;29;20214;-78
2023/03/14 07:28:10;;;;;;;8.80;8.30;;;11.30;99.90;;;;;;4956758;29;20211;-78
2023/03/14 07:30:39;;;;;;;9.00;8.50;;;11.80;99.90;;;;;;4945913;28;20220;-77
2023/03/14 07:33:12;;;;;;;9.43;8.83;;;12.30;99.90;;;;;;4944866;29;20237;-78
2023/03/14 07:35:39;;;;;;;9.40;8.80;;;12.90;99.90;;;;;;4938888;29;20201;-78
2023/03/14 07:38:06;;;;;;;9.23;8.63;;;13.40;99.90;;;;;;4951729;29;20195;-78
2023/03/14 07:40:39;;;;;;;4.63;2.27;;;13.50;99.90;;;;;;4950733;29;20772;-78
2023/03/14 07:43:07;;;;;;;2.60;2.40;;;13.50;99.90;;;;;;4949307;29;20206;-78
2023/03/14 07:45:42;;;;;;;2.67;2.47;;;13.50;99.90;;;;;;4952222;29;20216;-77
2023/03/14 07:48:09;;;;;;;2.30;2.20;;;13.40;99.90;;;;;;4950997;29;20204;-79
2023/03/14 07:50:36;;;;;;;2.00;1.90;;;13.20;99.90;;;;;;4940724;28;20213;-79
2023/03/14 07:53:03;;;;;;;2.23;2.03;;;13.10;99.90;;;;;;4933656;29;20610;-79
2023/03/14 07:55:30;;;;;;;2.07;1.97;;;13.00;99.90;;;;;;4930748;29;20675;-78
2023/03/14 07:57:58;;;;;;;2.03;1.90;;;12.90;99.90;;;;;;4935522;29;20279;-80
2023/03/14 08:00:25;;;;;;;2.73;2.00;;;12.80;99.90;;;;;;4934305;29;20716;-78
2023/03/14 08:02:51;;;;;;;1.80;1.70;;;12.80;99.90;;;;;;4929242;29;20207;-80
2023/03/14 08:05:18;;;;;;;2.13;2.03;;;12.80;99.90;;;;;;4936533;29;20207;-79
2023/03/14 08:07:45;;;;;;;2.10;2.00;;;12.80;99.90;;;;;;4935246;29;20249;-80
2023/03/14 08:10:15;;;;;;;2.87;2.03;;;12.90;99.90;;;;;;4935646;29;20215;-80
2023/03/14 08:12:42;;;;;;;1.93;1.83;;;13.00;99.90;;;;;;4933984;29;20207;-80
2023/03/14 08:15:11;;;;;;;2.80;2.20;;;13.20;99.90;;;;;;4934211;29;20661;-79
2023/03/14 08:17:38;;;;;;;1.93;1.80;;;13.30;99.90;;;;;;4934307;29;20631;-80
2023/03/14 08:20:08;;;;;;;2.00;1.90;;;13.40;99.90;;;;;;4935729;29;20203;-79
2023/03/14 08:22:35;;;;;;;2.10;2.00;;;13.50;99.90;;;;;;4936116;29;20204;-79
2023/03/14 08:25:02;;;;;;;2.00;1.90;;;13.40;99.90;;;;;;4938124;29;20209;-79
2023/03/14 08:27:28;;;;;;;1.83;1.80;;;13.30;99.90;;;;;;4929209;29;20261;-78
2023/03/14 08:29:55;;;;;;;3.77;2.00;;;13.20;99.90;;;;;;4932191;29;20210;-78
2023/03/14 08:32:23;;;;;;;2.10;1.90;;;13.10;99.90;;;;;;4936011;29;20231;-78
2023/03/14 08:34:50;;;;;;;2.87;2.00;;;13.00;99.90;;;;;;4927260;29;20279;-78
2023/03/14 08:37:18;;;;;;;2.47;2.23;;;13.00;99.90;;;;;;4934233;29;20202;-78
2023/03/14 08:39:45;;;;;;;1.70;1.70;;;13.00;99.90;;;;;;4927382;29;20196;-78
2023/03/14 08:42:12;;;;;;;2.43;2.33;;;13.30;99.90;;;;;;4951053;28;20252;-78
2023/03/14 08:44:39;;;;;;;2.10;1.90;;;14.00;99.90;;;;;;4939337;29;20252;-78
2023/03/14 08:47:06;;;;;;;1.90;1.80;;;14.50;99.90;;;;;;4933110;29;20212;-77
2023/03/14 08:49:34;;;;;;;1.83;1.73;;;15.10;99.90;;;;;;4940108;29;20228;-78
2023/03/14 08:52:03;;;;;;;2.30;1.80;;;15.90;99.90;;;;;;4939829;29;20231;-78
2023/03/14 08:54:30;;;;;;;1.67;1.67;;;16.50;99.90;;;;;;4940491;29;20262;-77
2023/03/14 08:56:56;;;;;;;1.97;1.87;;;17.10;99.90;;;;;;4940274;29;20223;-77
2023/03/14 08:59:24;;;;;;;2.30;2.10;;;17.10;99.90;;;;;;4940756;29;20203;-78
2023/03/14 09:01:51;;;;;;;1.90;1.80;;;17.20;99.90;;;;;;4937820;29;20227;-79
2023/03/14 09:04:17;;;;;;;2.00;1.90;;;17.40;99.90;;;;;;4938674;29;20201;-78
2023/03/14 09:06:45;;;;;;;2.17;1.97;;;17.50;99.90;;;;;;4938044;29;20224;-78
2023/03/14 09:09:13;;;;;;;1.77;1.70;;;17.70;99.90;;;;;;4932614;29;20220;-78
2023/03/14 09:11:40;;;;;;;2.00;1.90;;;17.60;99.90;;;;;;4941825;28;20228;-78
2023/03/14 09:14:07;;;;;;;2.17;2.07;;;17.60;99.90;;;;;;4935765;29;20243;-78
2023/03/14 09:16:34;;;;;;;4.30;2.40;;;17.50;99.90;;;;;;4938727;29;20255;-78
2023/03/14 09:19:01;;;;;;;1.90;1.80;;;17.30;99.90;;;;;;4937970;29;20477;-78
2023/03/14 09:21:28;;;;;;;1.97;1.77;;;16.70;99.90;;;;;;4937767;29;20460;-78
2023/03/14 09:23:56;;;;;;;1.70;1.70;;;16.30;99.90;;;;;;4936553;29;20195;-77
2023/03/14 09:26:23;;;;;;;1.63;1.60;;;15.80;99.90;;;;;;4932363;29;20607;-78
2023/03/14 09:28:50;;;;;;;1.90;1.77;;;15.40;99.90;;;;;;4934094;29;20214;-78
2023/03/14 09:31:17;;;;;;;3.67;1.80;;;15.00;99.90;;;;;;4939905;29;20219;-78
2023/03/14 09:33:44;;;;;;;1.73;1.63;;;14.80;99.90;;;;;;4934309;29;20207;-79
2023/03/14 09:36:11;;;;;;;1.87;1.77;;;14.60;99.90;;;;;;4934873;29;20570;-81
2023/03/14 09:38:38;;;;;;;3.10;3.00;;;14.40;99.90;;;;;;4935209;29;20203;-79
2023/03/14 09:41:15;;;;;;;1.90;1.80;;;14.40;99.90;;;;;;4926576;29;20781;-79
2023/03/14 09:43:44;;;;;;;3.30;3.10;;;14.40;99.90;;;;;;4934960;29;20204;-79
2023/03/14 09:46:12;;;;;;;2.80;2.70;;;14.40;99.90;;;;;;4935474;29;20650;-79
2023/03/14 09:48:40;;;;;;;2.80;2.60;;;14.40;99.90;;;;;;4930505;29;20203;-79
2023/03/14 09:51:14;;;;;;;3.13;2.60;;;14.40;99.90;;;;;;4941733;29;20226;-81
2023/03/14 09:53:43;;;;;;;3.07;2.87;;;14.30;99.90;;;;;;4944675;29;20194;-81
2023/03/14 09:56:17;;;;;;;6.33;5.93;;;14.00;99.90;;;;;;4945284;29;20680;-77
2023/03/14 09:58:46;;;;;;;6.93;6.53;;;13.80;99.90;;;;;;4950458;29;20597;-80
2023/03/14 10:01:19;;;;;;;5.77;5.33;;;13.60;99.90;;;;;;4949716;28;20292;-81
2023/03/14 10:03:47;;;;;;;1.90;1.80;;;13.30;99.90;;;;;;4947684;29;20256;-76
2023/03/14 10:06:15;;;;;;;5.37;5.07;;;13.20;99.90;;;;;;4947408;29;20602;-76
2023/03/14 10:08:43;;;;;;;5.90;5.60;;;13.10;99.90;;;;;;4950043;28;20210;-76
2023/03/14 10:11:16;;;;;;;7.23;6.63;;;13.00;99.90;;;;;;4952598;29;20345;-76
2023/03/14 10:14:02;;;;;;;6.23;5.93;;;13.00;99.90;;;;;;4944356;29;20199;-76
2023/03/14 10:16:30;;;;;;;6.30;6.00;;;13.10;99.90;;;;;;4948077;29;20291;-76
2023/03/14 10:19:03;;;;;;;6.37;5.90;;;13.10;99.90;;;;;;4949007;28;20207;-76
2023/03/14 10:21:33;;;;;;;6.27;5.87;;;13.20;99.90;;;;;;4952328;28;20220;-77
2023/03/14 10:24:09;;;;;;;6.00;5.70;;;13.30;99.90;;;;;;4944942;28;20309;-76
2023/03/14 10:26:38;;;;;;;6.60;6.20;;;13.30;99.90;;;;;;4942281;29;20277;-76
2023/03/14 10:29:11;;;;;;;6.50;6.10;;;13.30;99.90;;;;;;4950500;28;20630;-76
2023/03/14 10:31:48;;;;;;;6.30;5.90;;;13.30;99.90;;;;;;4939267;29;20644;-76
2023/03/14 10:34:18;;;;;;;6.20;5.90;;;13.30;99.90;;;;;;4953302;29;20762;-77
2023/03/14 10:36:45;;;;;;;6.27;5.70;;;13.30;99.90;;;;;;4949404;29;20661;-76
2023/03/14 10:39:27;;;;;;;5.67;5.30;;;13.20;99.90;;;;;;4951982;29;20204;-76
2023/03/14 10:42:02;;;;;;;6.70;6.30;;;13.20;99.90;;;;;;4949619;29;20281;-77
2023/03/14 10:44:30;;;;;;;6.97;6.57;;;13.10;99.90;;;;;;4942287;28;20204;-76
2023/03/14 10:47:00;;;;;;;7.10;6.70;;;13.10;99.90;;;;;;4945685;28;20208;-76
2023/03/14 10:49:29;;;;;;;6.17;5.87;;;13.00;99.90;;;;;;4944262;28;20206;-76
2023/03/14 10:51:57;;;;;;;7.60;7.20;;;13.00;99.90;;;;;;4944965;29;20308;-76
2023/03/14 10:54:24;;;;;;;7.60;7.20;;;13.10;99.90;;;;;;4949445;29;20247;-76
2023/03/14 10:57:01;;;;;;;8.03;7.63;;;13.10;99.90;;;;;;4953542;28;20198;-76
2023/03/14 10:59:34;;;;;;;7.70;7.30;;;13.10;99.90;;;;;;4954321;29;20282;-76
2023/03/14 11:02:08;;;;;;;7.83;7.40;;;13.10;99.90;;;;;;4951306;29;20230;-76
2023/03/14 11:04:55;;;;;;;7.50;7.10;;;13.20;99.90;;;;;;4940908;28;20197;-76
2023/03/14 11:07:28;;;;;;;7.00;6.60;;;13.20;99.90;;;;;;4947708;28;20227;-77
2023/03/14 11:10:00;;;;;;;7.17;6.77;;;13.20;99.90;;;;;;4949383;28;20281;-76
2023/03/14 11:12:41;;;;;;;8.63;8.13;;;13.10;99.90;;;;;;4949464;29;20210;-77
2023/03/14 11:15:17;;;;;;;8.87;8.37;;;13.00;99.90;;;;;;4949463;28;20212;-76
2023/03/14 11:17:56;;;;;;;8.00;7.50;;;12.90;99.90;;;;;;4948027;29;20661;-76
2023/03/14 11:20:36;;;;;;;7.93;7.47;;;12.70;99.90;;;;;;4947715;28;20706;-77
2023/03/14 11:23:09;;;;;;;8.87;8.37;;;12.50;99.90;;;;;;4939302;28;20199;-77
2023/03/14 11:25:45;;;;;;;7.00;6.67;;;12.40;99.90;;;;;;4936706;29;20256;-76
2023/03/14 11:28:20;;;;;;;7.70;7.30;;;12.40;99.90;;;;;;4935637;29;20273;-76
2023/03/14 11:30:52;;;;;;;7.70;7.30;;;12.30;99.90;;;;;;4947592;28;20214;-77
2023/03/14 11:33:24;;;;;;;8.00;7.60;;;12.30;99.90;;;;;;4948951;29;20262;-76
2023/03/14 11:35:58;;;;;;;7.73;7.33;;;12.20;99.90;;;;;;4951556;28;20199;-76
2023/03/14 11:38:31;;;;;;;7.83;7.40;;;12.20;99.90;;;;;;4947841;29;20202;-77
2023/03/14 11:40:59;;;;;;;7.80;7.40;;;12.20;99.90;;;;;;4947782;29;20226;-77
2023/03/14 11:43:30;;;;;;;7.70;7.30;;;12.10;99.90;;;;;;4946806;28;20206;-77
2023/03/14 11:46:04;;;;;;;8.17;7.67;;;12.00;99.90;;;;;;4943180;29;20259;-77
2023/03/14 11:48:40;;;;;;;8.60;8.00;;;11.80;99.90;;;;;;4948028;29;20230;-77
2023/03/14 11:51:15;;;;;;;8.53;8.03;;;11.70;99.90;;;;;;4949326;28;20317;-77
2023/03/14 11:53:50;;;;;;;8.50;8.00;;;11.70;99.90;;;;;;4945621;29;20748;-77
2023/03/14 11:56:23;;;;;;;9.87;9.17;;;11.70;99.90;;;;;;4951957;29;20618;-77
2023/03/14 11:58:58;;;;;;;8.10;7.60;;;11.70;99.90;;;;;;4941225;29;20261;-77
2023/03/14 12:01:41;;;;;;;8.80;8.20;;;11.80;99.90;;;;;;4947719;28;20711;-77
2023/03/14 12:04:14;;;;;;;8.77;8.27;;;11.90;99.90;;;;;;4938271;29;20210;-78
2023/03/14 12:06:47;;;;;;;8.70;8.10;;;12.00;99.90;;;;;;4943253;29;20202;-77
2023/03/14 12:09:15;;;;;;;8.50;8.10;;;12.00;99.90;;;;;;4925296;28;20196;-77
2023/03/14 12:11:48;;;;;;;8.70;8.30;;;12.10;99.90;;;;;;4945239;28;20638;-77
2023/03/14 12:14:26;;;;;;;8.30;7.90;;;12.00;99.90;;;;;;4947572;29;20211;-77
2023/03/14 12:16:58;;;;;;;7.60;7.20;;;12.00;99.90;;;;;;4942622;29;20639;-77
2023/03/14 12:19:37;;;;;;;7.53;7.13;;;12.00;99.90;;;;;;4945155;29;20273;-77
2023/03/14 12:22:17;;;;;;;8.10;7.60;;;11.80;99.90;;;;;;4939671;28;20222;-76
2023/03/14 12:24:49;;;;;;;8.23;7.73;;;11.70;99.90;;;;;;4934811;29;20206;-76
2023/03/14 12:27:46;;;;;;;8.93;8.43;;;11.60;99.90;;;;;;4933692;29;20221;-77
2023/03/14 12:30:36;;;;;;;9.20;8.70;;;11.40;99.90;;;;;;4931104;29;20231;-76
2023/03/14 12:33:35;;;;;;;9.23;8.73;;;11.30;99.90;;;;;;4925642;29;20583;-77
2023/03/14 12:36:04;;;;;;;8.60;8.00;;;11.20;99.90;;;;;;4934376;29;20301;-77
2023/03/14 12:38:44;;;;;;;8.20;7.80;;;11.00;99.90;;;;;;4935200;29;20719;-77
2023/03/14 12:41:15;;;;;;;8.57;8.07;;;11.00;99.90;;;;;;4934351;29;20226;-78
2023/03/14 12:43:43;;;;;;;8.60;8.20;;;11.10;99.90;;;;;;4952315;28;20606;-78
2023/03/14 12:46:22;;;;;;;8.90;8.50;;;11.30;99.90;;;;;;4926266;29;20257;-79
2023/03/14 12:48:51;;;;;;;9.03;8.53;;;11.60;99.90;;;;;;4946712;28;20270;-78
2023/03/14 12:51:19;;;;;;;8.67;8.10;;;11.90;99.90;;;;;;4944928;29;20713;-78
2023/03/14 12:54:14;;;;;;;9.10;8.60;;;12.00;99.90;;;;;;4934450;29;20215;-81
2023/03/14 12:56:52;;;;;;;8.93;8.43;;;12.10;99.90;;;;;;4941583;28;20616;-79
2023/03/14 12:59:30;;;;;;;8.43;8.00;;;12.10;99.90;;;;;;4934639;29;20207;-77
2023/03/14 13:02:03;;;;;;;8.77;8.27;;;12.30;99.90;;;;;;4934603;29;20215;-77
2023/03/14 13:04:34;;;;;;;8.10;7.70;;;12.50;99.90;;;;;;4937597;29;20203;-77
2023/03/14 13:07:02;;;;;;;8.20;7.70;;;12.60;99.90;;;;;;4931716;29;20204;-77
2023/03/14 13:09:54;;;;;;;7.60;7.20;;;12.50;99.90;;;;;;4934923;29;20222;-77
2023/03/14 13:12:29;;;;;;;8.10;7.70;;;12.10;99.90;;;;;;4938687;29;20259;-77
2023/03/14 13:15:00;;;;;;;8.50;7.90;;;12.00;99.90;;;;;;4933866;29;20207;-77
2023/03/14 13:17:32;;;;;;;8.10;7.70;;;12.00;99.90;;;;;;4936145;29;20230;-77
2023/03/14 13:20:04;;;;;;;8.10;7.50;;;11.90;99.90;;;;;;4934445;29;20206;-77
2023/03/14 13:22:36;;;;;;;7.90;7.40;;;11.70;99.90;;;;;;4940442;28;20206;-78
2023/03/14 13:25:05;;;;;;;8.40;7.90;;;11.60;99.90;;;;;;4938031;29;20214;-77
2023/03/14 13:27:34;;;;;;;7.93;7.43;;;11.60;99.90;;;;;;4940129;29;20463;-77
2023/03/14 13:30:14;;;;;;;7.90;7.50;;;11.40;99.90;;;;;;4937105;29;20639;-77
2023/03/14 13:32:45;;;;;;;8.23;7.73;;;11.20;99.90;;;;;;4937129;29;20206;-77
2023/03/14 13:35:17;;;;;;;7.97;7.40;;;11.20;99.90;;;;;;4947210;29;20207;-77
2023/03/14 13:37:44;;;;;;;8.30;7.70;;;11.10;99.90;;;;;;4933888;29;20250;-77
2023/03/14 13:40:21;;;;;;;8.20;7.70;;;11.00;99.90;;;;;;4939516;29;20272;-77
2023/03/14 13:42:49;;;;;;;8.00;7.50;;;11.10;99.90;;;;;;4936059;29;20675;-77
2023/03/14 13:45:16;;;;;;;7.80;7.40;;;11.10;99.90;;;;;;4938402;29;20201;-77
2023/03/14 13:47:47;;;;;;;8.20;7.60;;;11.00;99.90;;;;;;4939000;29;20215;-77
2023/03/14 13:50:17;;;;;;;8.07;7.57;;;11.00;99.90;;;;;;4936745;29;20230;-77
2023/03/14 13:52:45;;;;;;;7.90;7.40;;;11.00;99.90;;;;;;4934821;29;20202;-77
2023/03/14 13:55:16;;;;;;;8.30;7.70;;;11.00;99.90;;;;;;4936549;29;20217;-77
2023/03/14 13:57:46;;;;;;;8.20;7.60;;;10.80;99.90;;;;;;4938242;29;20266;-77
2023/03/14 14:00:21;;;;;;;7.90;7.40;;;10.70;99.90;;;;;;4941779;29;20230;-77
2023/03/14 14:02:49;;;;;;;8.37;7.67;;;10.60;99.90;;;;;;4937456;29;20509;-77
2023/03/14 14:05:17;;;;;;;7.97;7.50;;;10.60;99.90;;;;;;4939366;29;20291;-77
2023/03/14 14:07:45;;;;;;;8.57;7.87;;;10.50;99.90;;;;;;4937342;29;20208;-77
2023/03/14 14:10:13;;;;;;;9.10;8.50;;;10.50;99.90;;;;;;4936051;29;20280;-77
2023/03/14 14:12:43;;;;;;;8.70;8.20;;;10.40;99.90;;;;;;4940844;29;20679;-77
2023/03/14 14:15:14;;;;;;;9.23;8.53;;;10.40;99.90;;;;;;4937559;29;20210;-78
2023/03/14 14:17:44;;;;;;;9.23;8.53;;;10.50;99.90;;;;;;4939454;29;20260;-77
2023/03/14 14:20:21;;;;;;;8.80;8.20;;;10.60;99.90;;;;;;4941466;28;20233;-78
2023/03/14 14:22:48;;;;;;;8.80;8.30;;;10.70;99.90;;;;;;4933035;29;20268;-78
2023/03/14 14:25:15;;;;;;;8.47;7.97;;;10.70;99.90;;;;;;4935591;29;20233;-77
2023/03/14 14:27:44;;;;;;;9.00;8.40;;;10.60;99.90;;;;;;4941675;29;20288;-78
2023/03/14 14:30:31;;;;;;;8.80;8.20;;;10.70;99.90;;;;;;4944920;28;20230;-78
2023/03/14 14:33:14;;;;;;;9.10;8.50;;;10.60;99.90;;;;;;4934014;29;20253;-77
2023/03/14 14:35:42;;;;;;;8.43;7.93;;;10.50;99.90;;;;;;4943190;29;20208;-77
2023/03/14 14:38:17;;;;;;;9.30;8.70;;;10.70;99.90;;;;;;4937480;29;20198;-78
2023/03/14 14:40:49;;;;;;;9.07;8.57;;;10.50;99.90;;;;;;4932635;29;20598;-78
2023/03/14 14:43:20;;;;;;;9.20;8.20;;;10.50;99.90;;;;;;4938685;29;20633;-77
2023/03/14 14:45:49;;;;;;;8.57;8.07;;;10.50;99.90;;;;;;4936007;29;20205;-80
2023/03/14 14:48:21;;;;;;;8.43;7.73;;;10.40;99.90;;;;;;4936940;29;20233;-80
2023/03/14 14:50:58;;;;;;;8.20;7.70;;;10.30;99.90;;;;;;4933352;29;20272;-79
2023/03/14 14:53:29;;;;;;;8.40;7.70;;;10.20;99.90;;;;;;4942398;29;20210;-80
2023/03/14 14:55:58;;;;;;;8.17;7.57;;;10.10;99.90;;;;;;4936068;28;20627;-82
2023/03/14 14:58:27;;;;;;;8.30;7.80;;;10.10;99.90;;;;;;4935541;29;20223;-82
2023/03/14 15:00:57;;;;;;;8.23;7.63;;;10.10;99.90;;;;;;4931729;29;20291;-81
2023/03/14 15:03:28;;;;;;;8.87;7.93;;;10.10;99.90;;;;;;4930135;29;20208;-81
2023/03/14 15:05:57;;;;;;;8.13;7.60;;;10.20;99.90;;;;;;4935920;29;20299;-82
2023/03/14 15:08:26;;;;;;;8.57;7.97;;;10.20;99.90;;;;;;4929348;29;20223;-81
2023/03/14 15:10:52;;;;;;;8.30;7.70;;;10.30;99.90;;;;;;4942973;29;20225;-79
2023/03/14 15:13:19;;;;;;;8.37;7.77;;;10.40;99.90;;;;;;4928026;29;20629;-80
2023/03/14 15:15:47;;;;;;;7.93;7.43;;;10.40;99.90;;;;;;4928213;29;20259;-79
2023/03/14 15:18:16;;;;;;;7.83;7.23;;;10.40;99.90;;;;;;4928004;29;20544;-77
2023/03/14 15:20:43;;;;;;;8.03;7.43;;;10.40;99.90;;;;;;4935044;29;20225;-77
2023/03/14 15:23:13;;;;;;;7.83;7.43;;;10.30;99.90;;;;;;4927465;29;20226;-76
2023/03/14 15:25:40;;;;;;;8.83;8.17;;;10.20;99.90;;;;;;4933155;29;20609;-76
2023/03/14 15:28:15;;;;;;;8.60;7.80;;;10.20;99.90;;;;;;4944657;28;20273;-77
2023/03/14 15:30:42;;;;;;;8.23;7.63;;;10.20;99.90;;;;;;4932525;29;20228;-77
2023/03/14 15:33:09;;;;;;;8.50;7.93;;;10.10;99.90;;;;;;4929038;29;20203;-77
2023/03/14 15:35:37;;;;;;;8.63;8.00;;;10.10;99.90;;;;;;4934312;29;20220;-83
2023/03/14 15:38:04;;;;;;;8.30;7.80;;;10.10;99.90;;;;;;4940774;29;20208;-80
2023/03/14 15:40:32;;;;;;;7.90;7.40;;;10.10;99.90;;;;;;4928845;29;20222;-82
2023/03/14 15:42:59;;;;;;;8.00;7.50;;;10.10;99.90;;;;;;4938463;29;20676;-77
2023/03/14 15:45:25;;;;;;;7.90;7.40;;;10.20;99.90;;;;;;4931651;29;20244;-77
2023/03/14 15:47:52;;;;;;;7.97;7.47;;;10.20;99.90;;;;;;4936506;29;20260;-77
2023/03/14 15:50:19;;;;;;;7.77;7.20;;;10.10;99.90;;;;;;4932501;29;20220;-77
2023/03/14 15:52:46;;;;;;;8.00;7.40;;;10.00;99.90;;;;;;4934071;29;20221;-77
2023/03/14 15:55:14;;;;;;;7.50;7.00;;;9.90;99.90;;;;;;4926917;29;20681;-77
2023/03/14 15:57:43;;;;;;;7.50;6.97;;;9.90;99.90;;;;;;4932091;29;20201;-77
2023/03/14 16:00:15;;;;;;;7.37;6.97;;;9.80;99.90;;;;;;4930270;29;20220;-83
2023/03/14 16:02:42;;;;;;;7.60;7.10;;;9.80;99.90;;;;;;4930770;29;20574;-82
2023/03/14 16:05:11;;;;;;;7.60;7.10;;;9.70;99.90;;;;;;4925170;29;20208;-81
2023/03/14 16:07:38;;;;;;;7.60;7.10;;;9.70;99.90;;;;;;4936112;29;20259;-81
2023/03/14 16:10:06;;;;;;;8.47;7.83;;;9.60;99.90;;;;;;4937855;29;20220;-83
2023/03/14 16:12:33;;;;;;;7.63;6.97;;;9.60;99.90;;;;;;4927226;29;20201;-83
2023/03/14 16:15:01;;;;;;;7.13;6.73;;;9.50;99.90;;;;;;4934627;29;20255;-82